sensor_id;sensor_type;location;lat;lon;timestamp;P1;durP1;ratioP1;P2;durP2;ratioP2
41683;SDS011;27369;52.030;4.586;2022-10-17T00:01:34;10.77;;;8.40;;
41683;SDS011;27369;52.030;4.586;2022-10-17T00:03:59;11.50;;;8.40;;
41683;SDS011;27369;52.030;4.586;2022-10-17T00:06:25;13.88;;;8.05;;
41683;SDS011;27369;52.030;4.586;2022-10-17T00:08:50;11.32;;;8.35;;
41683;SDS011;27369;52.030;4.586;2022-10-17T00:11:17;10.65;;;8.63;;
41683;SDS011;27369;52.030;4.586;2022-10-17T00:13:46;9.32;;;8.50;;
41683;SDS011;27369;52.030;4.586;2022-10-17T00:16:13;11.50;;;8.10;;
41683;SDS011;27369;52.030;4.586;2022-10-17T00:21:04;11.50;;;9.00;;
41683;SDS011;27369;52.030;4.586;2022-10-17T00:23:30;12.70;;;8.77;;
41683;SDS011;27369;52.030;4.586;2022-10-17T00:26:00;12.65;;;9.40;;
41683;SDS011;27369;52.030;4.586;2022-10-17T00:28:27;12.07;;;9.43;;
41683;SDS011;27369;52.030;4.586;2022-10-17T00:30:59;10.40;;;8.85;;
41683;SDS011;27369;52.030;4.586;2022-10-17T00:33:28;12.55;;;9.25;;
41683;SDS011;27369;52.030;4.586;2022-10-17T00:36:01;12.30;;;9.60;;
41683;SDS011;27369;52.030;4.586;2022-10-17T00:38:43;13.23;;;10.40;;
41683;SDS011;27369;52.030;4.586;2022-10-17T00:41:11;10.68;;;9.73;;
41683;SDS011;27369;52.030;4.586;2022-10-17T00:46:22;13.88;;;10.25;;
41683;SDS011;27369;52.030;4.586;2022-10-17T00:48:50;13.18;;;10.63;;
41683;SDS011;27369;52.030;4.586;2022-10-17T00:51:18;12.68;;;10.45;;
41683;SDS011;27369;52.030;4.586;2022-10-17T00:53:47;15.63;;;10.63;;
41683;SDS011;27369;52.030;4.586;2022-10-17T00:56:13;13.95;;;11.02;;
41683;SDS011;27369;52.030;4.586;2022-10-17T00:58:39;14.75;;;10.45;;
41683;SDS011;27369;52.030;4.586;2022-10-17T01:01:05;13.25;;;10.73;;
41683;SDS011;27369;52.030;4.586;2022-10-17T01:03:30;14.90;;;10.57;;
41683;SDS011;27369;52.030;4.586;2022-10-17T01:05:55;13.77;;;10.88;;
41683;SDS011;27369;52.030;4.586;2022-10-17T01:08:21;12.23;;;10.93;;
41683;SDS011;27369;52.030;4.586;2022-10-17T01:13:29;12.35;;;11.02;;
41683;SDS011;27369;52.030;4.586;2022-10-17T01:16:07;12.20;;;10.65;;
41683;SDS011;27369;52.030;4.586;2022-10-17T01:26:26;15.32;;;10.73;;
41683;SDS011;27369;52.030;4.586;2022-10-17T01:29:26;16.10;;;10.38;;
41683;SDS011;27369;52.030;4.586;2022-10-17T01:31:57;12.73;;;10.30;;
41683;SDS011;27369;52.030;4.586;2022-10-17T01:42:48;12.90;;;11.60;;
41683;SDS011;27369;52.030;4.586;2022-10-17T01:45:32;15.02;;;11.90;;
41683;SDS011;27369;52.030;4.586;2022-10-17T01:48:13;15.25;;;11.77;;
41683;SDS011;27369;52.030;4.586;2022-10-17T01:53:17;18.23;;;12.65;;
41683;SDS011;27369;52.030;4.586;2022-10-17T01:55:46;12.88;;;11.00;;
41683;SDS011;27369;52.030;4.586;2022-10-17T01:58:24;15.52;;;11.65;;
41683;SDS011;27369;52.030;4.586;2022-10-17T02:00:55;14.30;;;11.85;;
41683;SDS011;27369;52.030;4.586;2022-10-17T02:03:25;14.38;;;11.07;;
41683;SDS011;27369;52.030;4.586;2022-10-17T02:05:52;14.43;;;12.00;;
41683;SDS011;27369;52.030;4.586;2022-10-17T02:08:28;13.55;;;11.45;;
41683;SDS011;27369;52.030;4.586;2022-10-17T02:11:06;13.75;;;11.65;;
41683;SDS011;27369;52.030;4.586;2022-10-17T02:21:47;12.98;;;11.57;;
41683;SDS011;27369;52.030;4.586;2022-10-17T02:27:24;13.65;;;12.15;;
41683;SDS011;27369;52.030;4.586;2022-10-17T02:29:54;13.57;;;11.75;;
41683;SDS011;27369;52.030;4.586;2022-10-17T02:32:30;15.30;;;12.50;;
41683;SDS011;27369;52.030;4.586;2022-10-17T02:35:06;14.18;;;12.68;;
41683;SDS011;27369;52.030;4.586;2022-10-17T02:37:35;17.20;;;12.15;;
41683;SDS011;27369;52.030;4.586;2022-10-17T02:40:01;14.90;;;11.95;;
41683;SDS011;27369;52.030;4.586;2022-10-17T02:42:28;14.55;;;11.60;;
41683;SDS011;27369;52.030;4.586;2022-10-17T02:44:57;19.45;;;13.10;;
41683;SDS011;27369;52.030;4.586;2022-10-17T02:47:27;19.83;;;12.32;;
41683;SDS011;27369;52.030;4.586;2022-10-17T02:49:55;16.98;;;12.27;;
41683;SDS011;27369;52.030;4.586;2022-10-17T02:52:31;14.05;;;12.63;;
41683;SDS011;27369;52.030;4.586;2022-10-17T02:55:17;16.10;;;12.10;;
41683;SDS011;27369;52.030;4.586;2022-10-17T02:57:46;16.25;;;12.85;;
41683;SDS011;27369;52.030;4.586;2022-10-17T03:00:15;16.52;;;12.75;;
41683;SDS011;27369;52.030;4.586;2022-10-17T03:02:43;15.27;;;11.77;;
41683;SDS011;27369;52.030;4.586;2022-10-17T03:05:11;15.68;;;13.00;;
41683;SDS011;27369;52.030;4.586;2022-10-17T03:07:39;14.90;;;12.27;;
41683;SDS011;27369;52.030;4.586;2022-10-17T03:10:04;16.77;;;12.52;;
41683;SDS011;27369;52.030;4.586;2022-10-17T03:12:30;15.20;;;12.85;;
41683;SDS011;27369;52.030;4.586;2022-10-17T03:14:55;20.13;;;13.07;;
41683;SDS011;27369;52.030;4.586;2022-10-17T03:17:21;20.35;;;12.40;;
41683;SDS011;27369;52.030;4.586;2022-10-17T03:19:46;22.45;;;13.00;;
41683;SDS011;27369;52.030;4.586;2022-10-17T03:22:11;14.50;;;11.90;;
41683;SDS011;27369;52.030;4.586;2022-10-17T03:24:37;15.60;;;12.02;;
41683;SDS011;27369;52.030;4.586;2022-10-17T03:27:02;14.25;;;11.88;;
41683;SDS011;27369;52.030;4.586;2022-10-17T03:29:28;15.73;;;12.55;;
41683;SDS011;27369;52.030;4.586;2022-10-17T03:31:53;19.73;;;11.68;;
41683;SDS011;27369;52.030;4.586;2022-10-17T03:34:19;18.20;;;11.70;;
41683;SDS011;27369;52.030;4.586;2022-10-17T03:36:44;18.20;;;12.07;;
41683;SDS011;27369;52.030;4.586;2022-10-17T03:39:10;13.35;;;11.10;;
41683;SDS011;27369;52.030;4.586;2022-10-17T03:41:35;16.70;;;12.10;;
41683;SDS011;27369;52.030;4.586;2022-10-17T03:44:01;20.70;;;11.82;;
41683;SDS011;27369;52.030;4.586;2022-10-17T03:46:26;20.05;;;11.07;;
41683;SDS011;27369;52.030;4.586;2022-10-17T03:48:52;17.20;;;11.88;;
41683;SDS011;27369;52.030;4.586;2022-10-17T03:51:17;14.48;;;11.68;;
41683;SDS011;27369;52.030;4.586;2022-10-17T03:53:43;14.10;;;11.38;;
41683;SDS011;27369;52.030;4.586;2022-10-17T03:56:09;26.88;;;11.82;;
41683;SDS011;27369;52.030;4.586;2022-10-17T03:58:39;16.52;;;11.98;;
41683;SDS011;27369;52.030;4.586;2022-10-17T04:01:05;16.65;;;11.98;;
41683;SDS011;27369;52.030;4.586;2022-10-17T04:03:32;17.48;;;11.65;;
41683;SDS011;27369;52.030;4.586;2022-10-17T04:05:58;18.48;;;12.13;;
41683;SDS011;27369;52.030;4.586;2022-10-17T04:08:25;15.30;;;12.20;;
41683;SDS011;27369;52.030;4.586;2022-10-17T04:10:51;15.45;;;12.30;;
41683;SDS011;27369;52.030;4.586;2022-10-17T04:13:16;17.15;;;11.77;;
41683;SDS011;27369;52.030;4.586;2022-10-17T04:15:42;15.40;;;12.23;;
41683;SDS011;27369;52.030;4.586;2022-10-17T04:18:07;13.68;;;11.43;;
41683;SDS011;27369;52.030;4.586;2022-10-17T04:20:35;20.25;;;11.32;;
41683;SDS011;27369;52.030;4.586;2022-10-17T04:23:00;16.63;;;11.52;;
41683;SDS011;27369;52.030;4.586;2022-10-17T04:25:26;13.38;;;11.98;;
41683;SDS011;27369;52.030;4.586;2022-10-17T04:27:51;18.58;;;12.10;;
41683;SDS011;27369;52.030;4.586;2022-10-17T04:30:16;13.80;;;10.38;;
41683;SDS011;27369;52.030;4.586;2022-10-17T04:32:42;16.85;;;10.77;;
41683;SDS011;27369;52.030;4.586;2022-10-17T04:35:07;15.05;;;11.00;;
41683;SDS011;27369;52.030;4.586;2022-10-17T04:37:33;14.68;;;10.52;;
41683;SDS011;27369;52.030;4.586;2022-10-17T04:39:58;17.00;;;11.25;;
41683;SDS011;27369;52.030;4.586;2022-10-17T04:42:24;14.10;;;11.10;;
41683;SDS011;27369;52.030;4.586;2022-10-17T04:44:49;15.73;;;9.48;;
41683;SDS011;27369;52.030;4.586;2022-10-17T04:47:14;14.60;;;10.55;;
41683;SDS011;27369;52.030;4.586;2022-10-17T04:49:40;12.02;;;10.48;;
41683;SDS011;27369;52.030;4.586;2022-10-17T04:52:05;14.93;;;9.85;;
41683;SDS011;27369;52.030;4.586;2022-10-17T04:54:31;12.93;;;10.60;;
41683;SDS011;27369;52.030;4.586;2022-10-17T04:56:56;10.63;;;9.50;;
41683;SDS011;27369;52.030;4.586;2022-10-17T04:59:22;19.35;;;10.02;;
41683;SDS011;27369;52.030;4.586;2022-10-17T05:01:47;12.57;;;9.73;;
41683;SDS011;27369;52.030;4.586;2022-10-17T05:04:13;13.35;;;9.25;;
41683;SDS011;27369;52.030;4.586;2022-10-17T05:06:38;14.85;;;10.90;;
41683;SDS011;27369;52.030;4.586;2022-10-17T05:09:04;13.55;;;9.73;;
41683;SDS011;27369;52.030;4.586;2022-10-17T05:11:29;18.73;;;9.63;;
41683;SDS011;27369;52.030;4.586;2022-10-17T05:13:56;13.82;;;9.23;;
41683;SDS011;27369;52.030;4.586;2022-10-17T05:16:23;11.75;;;9.45;;
41683;SDS011;27369;52.030;4.586;2022-10-17T05:21:15;13.43;;;9.35;;
41683;SDS011;27369;52.030;4.586;2022-10-17T05:23:40;14.23;;;9.38;;
41683;SDS011;27369;52.030;4.586;2022-10-17T05:26:06;15.80;;;9.27;;
41683;SDS011;27369;52.030;4.586;2022-10-17T05:28:32;12.65;;;9.40;;
41683;SDS011;27369;52.030;4.586;2022-10-17T05:31:01;11.50;;;8.93;;
41683;SDS011;27369;52.030;4.586;2022-10-17T05:33:27;16.48;;;9.35;;
41683;SDS011;27369;52.030;4.586;2022-10-17T05:35:53;12.77;;;8.30;;
41683;SDS011;27369;52.030;4.586;2022-10-17T05:38:18;12.43;;;8.63;;
41683;SDS011;27369;52.030;4.586;2022-10-17T05:40:43;11.93;;;9.00;;
41683;SDS011;27369;52.030;4.586;2022-10-17T05:43:09;10.25;;;8.95;;
41683;SDS011;27369;52.030;4.586;2022-10-17T05:45:34;18.70;;;8.38;;
41683;SDS011;27369;52.030;4.586;2022-10-17T05:48:00;12.48;;;8.45;;
41683;SDS011;27369;52.030;4.586;2022-10-17T05:50:25;11.35;;;8.35;;
41683;SDS011;27369;52.030;4.586;2022-10-17T05:52:54;9.82;;;8.82;;
41683;SDS011;27369;52.030;4.586;2022-10-17T05:55:20;12.02;;;9.13;;
41683;SDS011;27369;52.030;4.586;2022-10-17T05:57:45;15.63;;;9.65;;
41683;SDS011;27369;52.030;4.586;2022-10-17T06:00:11;10.80;;;8.38;;
41683;SDS011;27369;52.030;4.586;2022-10-17T06:02:37;9.93;;;8.70;;
41683;SDS011;27369;52.030;4.586;2022-10-17T06:05:02;11.18;;;8.98;;
41683;SDS011;27369;52.030;4.586;2022-10-17T06:07:28;10.35;;;9.15;;
41683;SDS011;27369;52.030;4.586;2022-10-17T06:09:53;14.90;;;9.82;;
41683;SDS011;27369;52.030;4.586;2022-10-17T06:12:18;12.75;;;9.60;;
41683;SDS011;27369;52.030;4.586;2022-10-17T06:14:44;14.75;;;8.60;;
41683;SDS011;27369;52.030;4.586;2022-10-17T06:17:09;12.00;;;9.35;;
41683;SDS011;27369;52.030;4.586;2022-10-17T06:19:35;11.38;;;8.98;;
41683;SDS011;27369;52.030;4.586;2022-10-17T06:22:00;12.63;;;9.00;;
41683;SDS011;27369;52.030;4.586;2022-10-17T06:24:26;12.48;;;8.75;;
41683;SDS011;27369;52.030;4.586;2022-10-17T06:26:51;13.60;;;8.68;;
41683;SDS011;27369;52.030;4.586;2022-10-17T06:29:17;8.95;;;8.07;;
41683;SDS011;27369;52.030;4.586;2022-10-17T06:31:42;11.88;;;9.02;;
41683;SDS011;27369;52.030;4.586;2022-10-17T06:34:08;12.10;;;9.00;;
41683;SDS011;27369;52.030;4.586;2022-10-17T06:36:33;9.90;;;8.90;;
41683;SDS011;27369;52.030;4.586;2022-10-17T06:38:59;14.10;;;9.30;;
41683;SDS011;27369;52.030;4.586;2022-10-17T06:41:24;12.32;;;9.75;;
41683;SDS011;27369;52.030;4.586;2022-10-17T06:43:50;10.73;;;9.43;;
41683;SDS011;27369;52.030;4.586;2022-10-17T06:46:16;10.90;;;9.15;;
41683;SDS011;27369;52.030;4.586;2022-10-17T06:48:42;10.68;;;8.88;;
41683;SDS011;27369;52.030;4.586;2022-10-17T06:51:08;13.27;;;8.57;;
41683;SDS011;27369;52.030;4.586;2022-10-17T06:53:35;12.77;;;9.43;;
41683;SDS011;27369;52.030;4.586;2022-10-17T06:56:01;15.80;;;9.18;;
41683;SDS011;27369;52.030;4.586;2022-10-17T06:58:29;16.88;;;9.70;;
41683;SDS011;27369;52.030;4.586;2022-10-17T07:01:03;13.45;;;9.40;;
41683;SDS011;27369;52.030;4.586;2022-10-17T07:03:31;13.13;;;8.98;;
41683;SDS011;27369;52.030;4.586;2022-10-17T07:05:57;15.90;;;8.82;;
41683;SDS011;27369;52.030;4.586;2022-10-17T07:08:23;10.82;;;8.52;;
41683;SDS011;27369;52.030;4.586;2022-10-17T07:10:49;13.30;;;9.20;;
41683;SDS011;27369;52.030;4.586;2022-10-17T07:13:15;12.65;;;8.30;;
41683;SDS011;27369;52.030;4.586;2022-10-17T07:15:41;11.93;;;8.80;;
41683;SDS011;27369;52.030;4.586;2022-10-17T07:18:07;12.25;;;8.85;;
41683;SDS011;27369;52.030;4.586;2022-10-17T07:20:32;16.85;;;9.30;;
41683;SDS011;27369;52.030;4.586;2022-10-17T07:22:58;11.70;;;9.20;;
41683;SDS011;27369;52.030;4.586;2022-10-17T07:25:23;10.73;;;8.55;;
41683;SDS011;27369;52.030;4.586;2022-10-17T07:27:49;12.13;;;8.70;;
41683;SDS011;27369;52.030;4.586;2022-10-17T07:32:41;11.20;;;8.03;;
41683;SDS011;27369;52.030;4.586;2022-10-17T07:35:07;11.35;;;8.85;;
41683;SDS011;27369;52.030;4.586;2022-10-17T07:37:34;10.27;;;8.02;;
41683;SDS011;27369;52.030;4.586;2022-10-17T07:42:25;12.37;;;7.93;;
41683;SDS011;27369;52.030;4.586;2022-10-17T07:44:52;13.60;;;8.77;;
41683;SDS011;27369;52.030;4.586;2022-10-17T07:47:18;10.77;;;8.15;;
41683;SDS011;27369;52.030;4.586;2022-10-17T07:49:43;10.35;;;7.90;;
41683;SDS011;27369;52.030;4.586;2022-10-17T07:52:12;11.27;;;8.30;;
41683;SDS011;27369;52.030;4.586;2022-10-17T07:54:38;11.45;;;8.55;;
41683;SDS011;27369;52.030;4.586;2022-10-17T07:59:31;12.20;;;9.53;;
41683;SDS011;27369;52.030;4.586;2022-10-17T08:01:57;12.98;;;9.48;;
41683;SDS011;27369;52.030;4.586;2022-10-17T08:04:23;14.05;;;9.20;;
41683;SDS011;27369;52.030;4.586;2022-10-17T08:06:49;16.13;;;8.70;;
41683;SDS011;27369;52.030;4.586;2022-10-17T08:09:15;10.55;;;7.88;;
41683;SDS011;27369;52.030;4.586;2022-10-17T08:11:40;12.52;;;8.30;;
41683;SDS011;27369;52.030;4.586;2022-10-17T08:14:08;13.52;;;8.90;;
41683;SDS011;27369;52.030;4.586;2022-10-17T08:18:59;14.17;;;9.37;;
41683;SDS011;27369;52.030;4.586;2022-10-17T08:21:25;12.32;;;9.20;;
41683;SDS011;27369;52.030;4.586;2022-10-17T08:23:50;13.93;;;9.18;;
41683;SDS011;27369;52.030;4.586;2022-10-17T08:26:16;12.93;;;9.25;;
41683;SDS011;27369;52.030;4.586;2022-10-17T08:28:43;17.50;;;9.77;;
41683;SDS011;27369;52.030;4.586;2022-10-17T08:33:36;13.38;;;8.75;;
41683;SDS011;27369;52.030;4.586;2022-10-17T08:36:03;12.13;;;9.00;;
41683;SDS011;27369;52.030;4.586;2022-10-17T08:38:29;14.25;;;8.90;;
41683;SDS011;27369;52.030;4.586;2022-10-17T08:41:09;15.43;;;9.48;;
41683;SDS011;27369;52.030;4.586;2022-10-17T08:46:39;12.85;;;8.98;;
41683;SDS011;27369;52.030;4.586;2022-10-17T08:49:09;14.95;;;9.27;;
41683;SDS011;27369;52.030;4.586;2022-10-17T08:51:41;11.52;;;9.20;;
41683;SDS011;27369;52.030;4.586;2022-10-17T08:54:21;14.38;;;9.23;;
41683;SDS011;27369;52.030;4.586;2022-10-17T08:57:07;15.45;;;9.55;;
41683;SDS011;27369;52.030;4.586;2022-10-17T08:59:36;14.38;;;8.60;;
41683;SDS011;27369;52.030;4.586;2022-10-17T09:18:14;13.43;;;8.52;;
41683;SDS011;27369;52.030;4.586;2022-10-17T09:20:50;15.32;;;8.68;;
41683;SDS011;27369;52.030;4.586;2022-10-17T09:23:22;13.90;;;9.00;;
41683;SDS011;27369;52.030;4.586;2022-10-17T09:26:06;10.32;;;8.27;;
41683;SDS011;27369;52.030;4.586;2022-10-17T09:28:36;12.55;;;8.25;;
41683;SDS011;27369;52.030;4.586;2022-10-17T09:31:09;12.25;;;7.95;;
41683;SDS011;27369;52.030;4.586;2022-10-17T09:33:41;11.38;;;8.00;;
41683;SDS011;27369;52.030;4.586;2022-10-17T09:36:13;13.48;;;8.65;;
41683;SDS011;27369;52.030;4.586;2022-10-17T09:38:41;11.90;;;9.13;;
41683;SDS011;27369;52.030;4.586;2022-10-17T09:41:12;11.77;;;7.60;;
41683;SDS011;27369;52.030;4.586;2022-10-17T09:43:42;12.65;;;8.40;;
41683;SDS011;27369;52.030;4.586;2022-10-17T09:46:09;10.48;;;7.80;;
41683;SDS011;27369;52.030;4.586;2022-10-17T09:48:42;13.90;;;7.53;;
41683;SDS011;27369;52.030;4.586;2022-10-17T09:51:12;12.30;;;7.50;;
41683;SDS011;27369;52.030;4.586;2022-10-17T09:53:40;12.02;;;8.30;;
41683;SDS011;27369;52.030;4.586;2022-10-17T09:56:16;11.15;;;7.75;;
41683;SDS011;27369;52.030;4.586;2022-10-17T09:58:46;10.23;;;7.50;;
41683;SDS011;27369;52.030;4.586;2022-10-17T10:04:09;13.98;;;8.75;;
41683;SDS011;27369;52.030;4.586;2022-10-17T10:06:36;9.98;;;7.78;;
41683;SDS011;27369;52.030;4.586;2022-10-17T10:09:02;10.23;;;8.18;;
41683;SDS011;27369;52.030;4.586;2022-10-17T10:14:22;11.82;;;7.68;;
41683;SDS011;27369;52.030;4.586;2022-10-17T10:16:52;10.70;;;6.72;;
41683;SDS011;27369;52.030;4.586;2022-10-17T10:19:19;13.60;;;8.30;;
41683;SDS011;27369;52.030;4.586;2022-10-17T10:21:56;11.48;;;7.45;;
41683;SDS011;27369;52.030;4.586;2022-10-17T10:24:22;13.52;;;6.97;;
41683;SDS011;27369;52.030;4.586;2022-10-17T10:26:49;10.70;;;6.38;;
41683;SDS011;27369;52.030;4.586;2022-10-17T10:31:46;10.30;;;6.20;;
41683;SDS011;27369;52.030;4.586;2022-10-17T10:41:52;7.60;;;4.70;;
41683;SDS011;27369;52.030;4.586;2022-10-17T10:44:18;8.27;;;4.60;;
41683;SDS011;27369;52.030;4.586;2022-10-17T10:46:47;6.05;;;4.68;;
41683;SDS011;27369;52.030;4.586;2022-10-17T10:49:28;5.47;;;4.32;;
41683;SDS011;27369;52.030;4.586;2022-10-17T10:51:54;9.73;;;5.07;;
41683;SDS011;27369;52.030;4.586;2022-10-17T10:54:27;7.18;;;4.90;;
41683;SDS011;27369;52.030;4.586;2022-10-17T10:56:59;6.82;;;5.10;;
41683;SDS011;27369;52.030;4.586;2022-10-17T10:59:30;8.38;;;5.10;;
41683;SDS011;27369;52.030;4.586;2022-10-17T11:02:23;5.57;;;4.47;;
41683;SDS011;27369;52.030;4.586;2022-10-17T11:05:24;7.07;;;3.60;;
41683;SDS011;27369;52.030;4.586;2022-10-17T11:08:09;5.43;;;3.30;;
41683;SDS011;27369;52.030;4.586;2022-10-17T11:11:03;3.72;;;2.72;;
41683;SDS011;27369;52.030;4.586;2022-10-17T11:13:42;4.90;;;2.63;;
41683;SDS011;27369;52.030;4.586;2022-10-17T11:24:27;3.60;;;2.10;;
41683;SDS011;27369;52.030;4.586;2022-10-17T11:26:59;4.72;;;2.35;;
41683;SDS011;27369;52.030;4.586;2022-10-17T11:29:29;3.75;;;2.53;;
41683;SDS011;27369;52.030;4.586;2022-10-17T11:31:58;4.18;;;2.42;;
41683;SDS011;27369;52.030;4.586;2022-10-17T11:34:42;5.88;;;2.70;;
41683;SDS011;27369;52.030;4.586;2022-10-17T11:37:16;3.55;;;2.55;;
41683;SDS011;27369;52.030;4.586;2022-10-17T11:42:23;4.78;;;3.20;;
41683;SDS011;27369;52.030;4.586;2022-10-17T11:44:55;4.93;;;3.10;;
41683;SDS011;27369;52.030;4.586;2022-10-17T11:50:23;5.57;;;3.10;;
41683;SDS011;27369;52.030;4.586;2022-10-17T11:52:54;5.45;;;3.10;;
41683;SDS011;27369;52.030;4.586;2022-10-17T11:55:27;6.75;;;3.53;;
41683;SDS011;27369;52.030;4.586;2022-10-17T12:06:43;5.38;;;4.30;;
41683;SDS011;27369;52.030;4.586;2022-10-17T12:09:33;6.45;;;4.47;;
41683;SDS011;27369;52.030;4.586;2022-10-17T12:12:22;5.50;;;4.20;;
41683;SDS011;27369;52.030;4.586;2022-10-17T12:14:49;5.53;;;4.40;;
41683;SDS011;27369;52.030;4.586;2022-10-17T12:17:24;7.10;;;4.75;;
41683;SDS011;27369;52.030;4.586;2022-10-17T12:22:53;5.72;;;4.03;;
41683;SDS011;27369;52.030;4.586;2022-10-17T12:25:25;7.18;;;4.35;;
41683;SDS011;27369;52.030;4.586;2022-10-17T12:28:15;4.93;;;3.90;;
41683;SDS011;27369;52.030;4.586;2022-10-17T12:38:49;5.20;;;2.75;;
41683;SDS011;27369;52.030;4.586;2022-10-17T12:49:38;6.78;;;2.85;;
41683;SDS011;27369;52.030;4.586;2022-10-17T12:54:29;3.97;;;2.60;;
41683;SDS011;27369;52.030;4.586;2022-10-17T12:56:55;5.18;;;3.17;;
41683;SDS011;27369;52.030;4.586;2022-10-17T12:59:25;4.05;;;3.10;;
41683;SDS011;27369;52.030;4.586;2022-10-17T13:01:56;5.47;;;2.60;;
41683;SDS011;27369;52.030;4.586;2022-10-17T13:04:24;4.93;;;3.10;;
41683;SDS011;27369;52.030;4.586;2022-10-17T13:06:53;5.10;;;2.55;;
41683;SDS011;27369;52.030;4.586;2022-10-17T13:09:30;7.43;;;2.92;;
41683;SDS011;27369;52.030;4.586;2022-10-17T13:11:59;4.68;;;3.17;;
41683;SDS011;27369;52.030;4.586;2022-10-17T13:14:27;4.63;;;2.80;;
41683;SDS011;27369;52.030;4.586;2022-10-17T13:16:56;4.57;;;3.17;;
41683;SDS011;27369;52.030;4.586;2022-10-17T13:19:24;6.25;;;3.20;;
41683;SDS011;27369;52.030;4.586;2022-10-17T13:21:57;8.43;;;3.75;;
41683;SDS011;27369;52.030;4.586;2022-10-17T13:24:35;4.28;;;2.60;;
41683;SDS011;27369;52.030;4.586;2022-10-17T13:27:02;6.45;;;3.20;;
41683;SDS011;27369;52.030;4.586;2022-10-17T13:29:30;7.32;;;3.20;;
41683;SDS011;27369;52.030;4.586;2022-10-17T13:32:03;4.20;;;2.75;;
41683;SDS011;27369;52.030;4.586;2022-10-17T13:34:31;5.68;;;2.65;;
41683;SDS011;27369;52.030;4.586;2022-10-17T13:37:01;5.60;;;2.70;;
41683;SDS011;27369;52.030;4.586;2022-10-17T13:39:33;3.78;;;2.70;;
41683;SDS011;27369;52.030;4.586;2022-10-17T13:42:02;3.78;;;2.30;;
41683;SDS011;27369;52.030;4.586;2022-10-17T13:44:33;5.57;;;2.30;;
41683;SDS011;27369;52.030;4.586;2022-10-17T13:46:59;5.32;;;2.28;;
41683;SDS011;27369;52.030;4.586;2022-10-17T13:49:31;5.00;;;2.22;;
41683;SDS011;27369;52.030;4.586;2022-10-17T13:51:59;4.95;;;2.10;;
41683;SDS011;27369;52.030;4.586;2022-10-17T13:54:32;3.03;;;2.33;;
41683;SDS011;27369;52.030;4.586;2022-10-17T13:57:04;4.97;;;2.30;;
41683;SDS011;27369;52.030;4.586;2022-10-17T13:59:40;4.68;;;2.15;;
41683;SDS011;27369;52.030;4.586;2022-10-17T14:02:14;5.53;;;2.22;;
41683;SDS011;27369;52.030;4.586;2022-10-17T14:05:07;6.88;;;2.50;;
41683;SDS011;27369;52.030;4.586;2022-10-17T14:07:37;5.53;;;2.38;;
41683;SDS011;27369;52.030;4.586;2022-10-17T14:10:19;4.60;;;2.30;;
41683;SDS011;27369;52.030;4.586;2022-10-17T14:12:52;4.90;;;2.25;;
41683;SDS011;27369;52.030;4.586;2022-10-17T14:15:20;6.25;;;2.15;;
41683;SDS011;27369;52.030;4.586;2022-10-17T14:17:58;3.28;;;2.20;;
41683;SDS011;27369;52.030;4.586;2022-10-17T14:20:26;5.80;;;2.35;;
41683;SDS011;27369;52.030;4.586;2022-10-17T14:22:53;6.63;;;2.30;;
41683;SDS011;27369;52.030;4.586;2022-10-17T14:25:33;5.32;;;1.92;;
41683;SDS011;27369;52.030;4.586;2022-10-17T14:30:39;5.43;;;1.90;;
41683;SDS011;27369;52.030;4.586;2022-10-17T14:33:10;4.10;;;1.92;;
41683;SDS011;27369;52.030;4.586;2022-10-17T14:35:39;4.82;;;2.20;;
41683;SDS011;27369;52.030;4.586;2022-10-17T14:38:13;6.05;;;2.30;;
41683;SDS011;27369;52.030;4.586;2022-10-17T14:40:46;6.07;;;1.98;;
41683;SDS011;27369;52.030;4.586;2022-10-17T14:43:15;5.93;;;2.35;;
41683;SDS011;27369;52.030;4.586;2022-10-17T14:45:45;4.43;;;1.90;;
41683;SDS011;27369;52.030;4.586;2022-10-17T14:48:15;4.90;;;1.90;;
41683;SDS011;27369;52.030;4.586;2022-10-17T14:51:03;7.47;;;2.03;;
41683;SDS011;27369;52.030;4.586;2022-10-17T14:53:30;3.90;;;2.00;;
41683;SDS011;27369;52.030;4.586;2022-10-17T14:55:56;4.95;;;1.90;;
41683;SDS011;27369;52.030;4.586;2022-10-17T14:58:27;6.45;;;2.25;;
41683;SDS011;27369;52.030;4.586;2022-10-17T15:00:55;4.15;;;2.10;;
41683;SDS011;27369;52.030;4.586;2022-10-17T15:03:22;7.72;;;1.70;;
41683;SDS011;27369;52.030;4.586;2022-10-17T15:05:48;5.45;;;1.75;;
41683;SDS011;27369;52.030;4.586;2022-10-17T15:08:15;3.67;;;1.75;;
41683;SDS011;27369;52.030;4.586;2022-10-17T15:10:42;3.72;;;1.88;;
41683;SDS011;27369;52.030;4.586;2022-10-17T15:13:09;5.00;;;1.90;;
41683;SDS011;27369;52.030;4.586;2022-10-17T15:15:36;6.43;;;2.30;;
41683;SDS011;27369;52.030;4.586;2022-10-17T15:18:02;7.88;;;2.38;;
41683;SDS011;27369;52.030;4.586;2022-10-17T15:20:28;6.70;;;2.30;;
41683;SDS011;27369;52.030;4.586;2022-10-17T15:22:55;6.87;;;1.97;;
41683;SDS011;27369;52.030;4.586;2022-10-17T15:25:22;4.40;;;2.38;;
41683;SDS011;27369;52.030;4.586;2022-10-17T15:30:34;3.73;;;2.00;;
41683;SDS011;27369;52.030;4.586;2022-10-17T15:33:00;5.43;;;2.20;;
41683;SDS011;27369;52.030;4.586;2022-10-17T15:35:26;6.10;;;1.98;;
41683;SDS011;27369;52.030;4.586;2022-10-17T15:37:52;6.68;;;2.33;;
41683;SDS011;27369;52.030;4.586;2022-10-17T15:40:22;5.72;;;2.47;;
41683;SDS011;27369;52.030;4.586;2022-10-17T15:42:54;5.77;;;2.30;;
41683;SDS011;27369;52.030;4.586;2022-10-17T15:45:20;7.38;;;2.40;;
41683;SDS011;27369;52.030;4.586;2022-10-17T15:50:17;8.25;;;2.40;;
41683;SDS011;27369;52.030;4.586;2022-10-17T15:52:42;6.60;;;2.38;;
41683;SDS011;27369;52.030;4.586;2022-10-17T15:55:11;13.32;;;2.95;;
41683;SDS011;27369;52.030;4.586;2022-10-17T15:57:37;5.03;;;2.35;;
41683;SDS011;27369;52.030;4.586;2022-10-17T16:00:10;6.95;;;2.88;;
41683;SDS011;27369;52.030;4.586;2022-10-17T16:02:40;4.00;;;2.60;;
41683;SDS011;27369;52.030;4.586;2022-10-17T16:05:16;7.75;;;2.20;;
41683;SDS011;27369;52.030;4.586;2022-10-17T16:07:47;4.00;;;2.47;;
41683;SDS011;27369;52.030;4.586;2022-10-17T16:10:13;6.85;;;2.20;;
41683;SDS011;27369;52.030;4.586;2022-10-17T16:12:39;6.15;;;2.53;;
41683;SDS011;27369;52.030;4.586;2022-10-17T16:15:06;6.43;;;2.47;;
41683;SDS011;27369;52.030;4.586;2022-10-17T16:17:39;6.78;;;2.50;;
41683;SDS011;27369;52.030;4.586;2022-10-17T16:20:05;3.28;;;2.13;;
41683;SDS011;27369;52.030;4.586;2022-10-17T16:22:31;6.82;;;2.20;;
41683;SDS011;27369;52.030;4.586;2022-10-17T16:25:01;5.57;;;2.35;;
41683;SDS011;27369;52.030;4.586;2022-10-17T16:27:37;9.82;;;2.95;;
41683;SDS011;27369;52.030;4.586;2022-10-17T16:30:03;6.15;;;1.90;;
41683;SDS011;27369;52.030;4.586;2022-10-17T16:32:30;4.32;;;2.03;;
41683;SDS011;27369;52.030;4.586;2022-10-17T16:34:55;4.93;;;1.65;;
41683;SDS011;27369;52.030;4.586;2022-10-17T16:37:21;7.95;;;2.33;;
41683;SDS011;27369;52.030;4.586;2022-10-17T16:39:46;10.05;;;2.00;;
41683;SDS011;27369;52.030;4.586;2022-10-17T16:42:16;4.93;;;1.60;;
41683;SDS011;27369;52.030;4.586;2022-10-17T16:47:07;5.73;;;1.80;;
41683;SDS011;27369;52.030;4.586;2022-10-17T16:49:33;6.38;;;1.73;;
41683;SDS011;27369;52.030;4.586;2022-10-17T16:51:58;6.25;;;1.92;;
41683;SDS011;27369;52.030;4.586;2022-10-17T16:54:24;7.80;;;1.55;;
41683;SDS011;27369;52.030;4.586;2022-10-17T16:56:49;7.90;;;2.00;;
41683;SDS011;27369;52.030;4.586;2022-10-17T16:59:14;6.25;;;1.77;;
41683;SDS011;27369;52.030;4.586;2022-10-17T17:01:40;5.90;;;1.35;;
41683;SDS011;27369;52.030;4.586;2022-10-17T17:04:05;8.07;;;1.67;;
41683;SDS011;27369;52.030;4.586;2022-10-17T17:06:33;7.47;;;1.70;;
41683;SDS011;27369;52.030;4.586;2022-10-17T17:08:59;8.27;;;1.60;;